Time;durP1;ratioP1;P1;durP2;ratioP2;P2;SDS_P1;SDS_P2;PMS_P1;PMS_P2;Temp;Humidity;BMP_temperature;BMP_pressure;BME280_temperature;BME280_humidity;BME280_pressure;Samples;Min_cycle;Max_cycle;Signal;HPM_P1;HPM_P2
2023/10/09 00:03:09;;;;;;;11.85;5.57;;;14.20;95.10;;;;;;4882110;29;20132;-88
2023/10/09 00:05:55;;;;;;;13.27;6.88;;;14.20;95.10;;;;;;4872646;29;20109;-88
2023/10/09 00:08:32;;;;;;;15.85;6.30;;;14.30;95.20;;;;;;4874001;29;20053;-89
2023/10/09 00:11:16;;;;;;;11.77;5.72;;;14.30;95.20;;;;;;4881758;29;20064;-89
2023/10/09 00:13:52;;;;;;;14.82;6.97;;;14.30;95.20;;;;;;4869909;29;20052;-90
2023/10/09 00:16:32;;;;;;;12.25;6.05;;;14.30;95.20;;;;;;4880848;29;20057;-89
2023/10/09 00:21:42;;;;;;;15.93;7.00;;;14.30;95.30;;;;;;4885172;29;20041;-89
2023/10/09 00:24:24;;;;;;;15.95;7.22;;;14.30;95.30;;;;;;4879456;29;20083;-89
2023/10/09 00:26:52;;;;;;;;;;;14.30;95.30;;;;;;4854497;29;20049;-88
2023/10/09 00:29:22;;;;;;;14.63;7.28;;;14.30;95.30;;;;;;4880554;29;19930;-89
2023/10/09 00:32:03;;;;;;;14.68;8.10;;;14.40;95.40;;;;;;4891516;29;20052;-88
2023/10/09 00:34:39;;;;;;;18.20;8.20;;;14.40;95.40;;;;;;4880423;29;20044;-89
2023/10/09 00:37:16;;;;;;;12.63;6.88;;;14.40;95.40;;;;;;4879325;29;20148;-89
2023/10/09 00:39:44;;;;;;;17.60;8.80;;;14.40;95.40;;;;;;4885269;29;20100;-89
2023/10/09 00:42:12;;;;;;;13.32;6.97;;;14.30;95.50;;;;;;4879151;29;20078;-90
2023/10/09 00:44:41;;;;;;;12.38;6.90;;;14.30;95.60;;;;;;4882526;29;20402;-90
2023/10/09 00:47:23;;;;;;;13.45;6.95;;;14.30;95.60;;;;;;4874002;29;20510;-90
2023/10/09 00:50:00;;;;;;;14.20;6.78;;;14.30;95.70;;;;;;4879305;29;20064;-90
2023/10/09 00:52:50;;;;;;;15.70;7.15;;;14.30;95.70;;;;;;4878803;29;20056;-89
2023/10/09 00:55:27;;;;;;;15.52;8.13;;;14.20;95.70;;;;;;4870621;29;20503;-88
2023/10/09 00:57:59;;;;;;;15.05;7.75;;;14.30;95.80;;;;;;4879010;29;20076;-88
2023/10/09 01:00:45;;;;;;;13.45;6.72;;;14.20;95.80;;;;;;4885000;29;20064;-89
2023/10/09 01:06:15;;;;;;;13.48;6.97;;;14.30;95.80;;;;;;4878956;29;20045;-89
2023/10/09 01:08:47;;;;;;;11.73;6.20;;;14.20;95.80;;;;;;4884425;29;20135;-89
2023/10/09 01:11:21;;;;;;;19.33;8.95;;;14.30;95.90;;;;;;4872826;29;20052;-89
2023/10/09 01:13:52;;;;;;;18.33;9.20;;;14.30;95.90;;;;;;4866758;29;20075;-89
2023/10/09 01:16:22;;;;;;;19.85;10.23;;;14.40;95.90;;;;;;4871136;29;20053;-89
2023/10/09 01:18:52;;;;;;;17.60;10.02;;;14.40;96.00;;;;;;4878610;29;20053;-89
2023/10/09 01:21:27;;;;;;;20.08;9.10;;;14.40;95.90;;;;;;4879817;29;20052;-89
2023/10/09 01:24:03;;;;;;;19.52;9.38;;;14.50;95.90;;;;;;4880108;29;20088;-89
2023/10/09 01:26:39;;;;;;;16.58;8.32;;;14.50;95.90;;;;;;4881867;29;20073;-89
2023/10/09 01:29:14;;;;;;;14.30;8.02;;;14.50;95.90;;;;;;4869711;29;20055;-89
2023/10/09 01:32:04;;;;;;;17.58;8.02;;;14.50;95.90;;;;;;4889208;29;20049;-89
2023/10/09 01:37:25;;;;;;;14.25;8.43;;;14.60;95.90;;;;;;4881930;29;20069;-89
2023/10/09 01:40:37;;;;;;;15.40;8.07;;;14.60;95.90;;;;;;4881756;29;20060;-89
2023/10/09 01:42:45;;;;;;;17.42;8.68;;;14.60;95.90;;;;;;4859107;29;20059;-89
2023/10/09 01:45:27;;;;;;;16.23;9.80;;;14.60;95.90;;;;;;4886315;29;20083;-89
2023/10/09 01:47:54;;;;;;;19.30;9.70;;;14.70;95.90;;;;;;4883993;29;20044;-90
2023/10/09 01:50:30;;;;;;;16.38;8.82;;;14.70;95.90;;;;;;4893038;29;20056;-90
2023/10/09 01:53:07;;;;;;;22.05;11.23;;;14.70;95.90;;;;;;4881640;29;20057;-89
2023/10/09 01:55:38;;;;;;;22.45;10.60;;;14.70;96.00;;;;;;4874642;29;20131;-89
2023/10/09 02:00:56;;;;;;;15.70;8.95;;;14.80;96.00;;;;;;4894393;29;20301;-89
2023/10/09 02:03:26;;;;;;;22.17;9.88;;;14.80;96.00;;;;;;4868490;29;20519;-90
2023/10/09 02:05:59;;;;;;;17.65;8.85;;;14.80;95.90;;;;;;4872440;29;20052;-89
2023/10/09 02:08:27;;;;;;;18.58;8.25;;;14.80;95.90;;;;;;4860144;29;20121;-89
2023/10/09 02:10:57;;;;;;;14.88;7.68;;;14.80;95.90;;;;;;4865047;29;20057;-90
2023/10/09 02:13:29;;;;;;;13.07;7.07;;;14.80;95.90;;;;;;4882028;29;20143;-89
2023/10/09 02:16:13;;;;;;;15.88;7.65;;;14.90;95.90;;;;;;4881589;29;20484;-89
2023/10/09 02:18:56;;;;;;;14.93;7.90;;;14.90;95.90;;;;;;4837845;29;20056;-89
2023/10/09 02:21:33;;;;;;;15.90;9.07;;;14.90;95.90;;;;;;4876293;29;20493;-89
2023/10/09 02:24:26;;;;;;;16.45;8.95;;;14.90;95.90;;;;;;4890072;29;20048;-90
2023/10/09 02:29:23;;;;;;;16.45;9.10;;;14.90;96.00;;;;;;4859457;29;20127;-90
2023/10/09 02:32:00;;;;;;;16.35;9.18;;;14.90;96.00;;;;;;4875087;29;20049;-89
2023/10/09 02:34:29;;;;;;;17.90;9.18;;;14.90;96.00;;;;;;4865433;29;20049;-90
2023/10/09 02:37:05;;;;;;;14.52;7.72;;;14.90;96.00;;;;;;4886833;29;20076;-90
2023/10/09 02:39:48;;;;;;;12.95;8.32;;;14.90;96.00;;;;;;4871099;29;20124;-90
2023/10/09 02:44:51;;;;;;;14.27;6.82;;;14.90;96.00;;;;;;4872986;29;20132;-90
2023/10/09 02:47:29;;;;;;;13.50;7.75;;;14.90;96.00;;;;;;4882404;29;20132;-90
2023/10/09 02:50:06;;;;;;;14.55;7.95;;;15.00;96.00;;;;;;4876468;29;20120;-89
2023/10/09 02:52:34;;;;;;;11.43;6.63;;;15.00;96.00;;;;;;4865527;29;20056;-89
2023/10/09 02:55:22;;;;;;;15.05;9.05;;;15.00;96.00;;;;;;4853357;29;20049;-88
2023/10/09 02:57:56;;;;;;;17.02;9.23;;;15.00;96.10;;;;;;4883182;29;20061;-88
2023/10/09 03:00:29;;;;;;;19.60;10.88;;;15.00;96.10;;;;;;4855265;29;20140;-89
2023/10/09 03:02:58;;;;;;;16.00;9.70;;;15.00;96.10;;;;;;4855999;29;20036;-89
2023/10/09 03:05:28;;;;;;;17.73;10.43;;;15.00;96.10;;;;;;4878361;29;20109;-88
2023/10/09 03:07:56;;;;;;;17.05;9.93;;;15.00;96.10;;;;;;4864763;29;20080;-89
2023/10/09 03:10:25;;;;;;;17.20;10.30;;;15.00;96.10;;;;;;4851070;29;20164;-89
2023/10/09 03:12:55;;;;;;;21.20;11.32;;;15.00;96.10;;;;;;4876147;29;20049;-90
2023/10/09 03:15:22;;;;;;;16.63;9.20;;;15.00;96.20;;;;;;4883028;29;20049;-90
2023/10/09 03:17:51;;;;;;;18.80;10.90;;;15.00;96.10;;;;;;4870000;29;20143;-89
2023/10/09 03:20:18;;;;;;;20.45;11.07;;;15.00;96.20;;;;;;4862558;29;20049;-90
2023/10/09 03:22:47;;;;;;;19.40;10.73;;;15.00;96.20;;;;;;4865295;29;20408;-89
2023/10/09 03:25:16;;;;;;;22.60;10.73;;;15.00;96.20;;;;;;4863409;29;20105;-90
2023/10/09 03:27:47;;;;;;;17.33;8.75;;;15.00;96.20;;;;;;4856536;29;20052;-90
2023/10/09 03:30:22;;;;;;;16.70;8.90;;;15.10;96.20;;;;;;4874230;29;20057;-89
2023/10/09 03:32:51;;;;;;;15.20;8.60;;;15.10;96.20;;;;;;4844761;29;20049;-89
2023/10/09 03:35:33;;;;;;;13.70;7.88;;;15.10;96.30;;;;;;4830039;29;20063;-88
2023/10/09 03:38:09;;;;;;;13.77;8.10;;;15.10;96.30;;;;;;4845203;29;20049;-90
2023/10/09 03:40:39;;;;;;;14.68;8.90;;;15.10;96.30;;;;;;4838973;29;20482;-90
2023/10/09 03:43:06;;;;;;;16.42;8.52;;;15.10;96.30;;;;;;4844990;29;20053;-90
2023/10/09 03:45:35;;;;;;;17.80;10.52;;;15.10;96.30;;;;;;4839170;29;20137;-90
2023/10/09 03:48:22;;;;;;;16.95;10.77;;;15.10;96.30;;;;;;4862849;29;20053;-89
2023/10/09 03:51:08;;;;;;;19.65;10.00;;;15.10;96.30;;;;;;4879626;29;20495;-89
2023/10/09 03:53:36;;;;;;;20.40;9.88;;;15.10;96.30;;;;;;4864120;29;20548;-89
2023/10/09 03:56:11;;;;;;;18.15;10.85;;;15.10;96.30;;;;;;4892199;29;20076;-88
2023/10/09 03:58:44;;;;;;;15.52;9.43;;;15.10;96.30;;;;;;4879578;29;20045;-89
2023/10/09 04:01:22;;;;;;;16.05;9.45;;;15.10;96.30;;;;;;4870736;29;20049;-89
2023/10/09 04:03:59;;;;;;;17.83;9.43;;;15.10;96.30;;;;;;4869725;29;20487;-89
2023/10/09 04:06:30;;;;;;;18.05;9.70;;;15.10;96.40;;;;;;4881282;29;20093;-88
2023/10/09 04:08:58;;;;;;;16.27;9.73;;;15.10;96.40;;;;;;4875969;29;20049;-88
2023/10/09 04:11:26;;;;;;;16.80;9.90;;;15.10;96.40;;;;;;4879135;29;20140;-89
2023/10/09 04:13:53;;;;;;;17.38;10.15;;;15.10;96.40;;;;;;4850934;29;20483;-89
2023/10/09 04:17:32;;;;;;;15.63;9.32;;;15.10;96.40;;;;;;4864063;29;20048;-89
2023/10/09 04:19:14;;;;;;;18.42;9.48;;;15.10;96.50;;;;;;4860406;29;20703;-89
2023/10/09 04:21:41;;;;;;;17.48;10.40;;;15.20;96.50;;;;;;4879375;29;20048;-89
2023/10/09 04:26:44;;;;;;;16.83;10.35;;;15.20;96.50;;;;;;4879342;29;20065;-89
2023/10/09 04:29:26;;;;;;;19.92;11.65;;;15.20;96.50;;;;;;4865648;29;20093;-88
2023/10/09 04:31:56;;;;;;;21.13;12.35;;;15.30;96.60;;;;;;4863764;29;20053;-89
2023/10/09 04:37:36;;;;;;;21.05;12.27;;;15.30;96.60;;;;;;4894922;29;20103;-88
2023/10/09 04:40:01;;;;;;;18.33;10.95;;;15.40;96.60;;;;;;4893075;29;20057;-88
2023/10/09 04:42:37;;;;;;;17.60;10.02;;;15.40;96.60;;;;;;4872276;29;20060;-88
2023/10/09 04:47:36;;;;;;;18.55;11.65;;;15.40;96.60;;;;;;4878504;29;20411;-89
2023/10/09 04:52:54;;;;;;;17.77;10.98;;;15.50;96.70;;;;;;4868521;29;20056;-88
2023/10/09 04:55:25;;;;;;;14.93;9.52;;;15.50;96.70;;;;;;4833371;29;20053;-88
2023/10/09 04:58:01;;;;;;;16.30;10.15;;;15.50;96.70;;;;;;4863350;29;20053;-89
2023/10/09 05:03:09;;;;;;;13.90;8.63;;;15.50;96.70;;;;;;4864322;29;20045;-89
2023/10/09 05:14:12;;;;;;;15.48;8.77;;;15.60;96.70;;;;;;4870460;29;20509;-88
2023/10/09 05:16:54;;;;;;;15.70;9.45;;;15.60;96.70;;;;;;4876645;29;20521;-87
2023/10/09 05:22:29;;;;;;;13.27;8.73;;;15.70;96.70;;;;;;4868090;29;20060;-88
2023/10/09 05:24:58;;;;;;;10.98;8.10;;;15.70;96.70;;;;;;4875331;29;20499;-89
2023/10/09 05:27:50;;;;;;;13.93;8.45;;;15.70;96.60;;;;;;4882023;29;20079;-88
2023/10/09 05:30:24;;;;;;;15.40;10.10;;;15.70;96.60;;;;;;4884390;29;20558;-88
2023/10/09 05:32:58;;;;;;;13.27;8.82;;;15.70;96.70;;;;;;4867552;29;20045;-89
2023/10/09 05:35:39;;;;;;;16.50;10.50;;;15.70;96.70;;;;;;4867140;29;20060;-89
2023/10/09 05:38:23;;;;;;;15.57;9.75;;;15.80;96.70;;;;;;4884881;29;20072;-88
2023/10/09 05:41:30;;;;;;;17.23;9.85;;;15.80;96.70;;;;;;4893211;29;20056;-88
2023/10/09 05:46:48;;;;;;;19.90;11.35;;;15.80;96.70;;;;;;4859484;29;20053;-88
2023/10/09 05:49:19;;;;;;;16.90;11.25;;;15.80;96.70;;;;;;4857181;29;20053;-89
2023/10/09 05:51:53;;;;;;;19.83;10.82;;;15.80;96.80;;;;;;4876369;29;20053;-89
2023/10/09 06:03:23;;;;;;;16.02;9.70;;;15.80;96.90;;;;;;4872602;29;20460;-88
2023/10/09 06:08:26;;;;;;;12.70;8.57;;;15.80;97.00;;;;;;4891435;29;20053;-88
2023/10/09 06:11:35;;;;;;;16.25;9.75;;;15.80;97.00;;;;;;4891251;29;20045;-88
2023/10/09 06:16:43;;;;;;;15.32;8.48;;;15.80;97.00;;;;;;4860986;29;20136;-89
2023/10/09 06:24:23;;;;;;;12.18;8.27;;;15.90;97.00;;;;;;4881355;29;20057;-88
2023/10/09 06:29:36;;;;;;;15.90;8.52;;;15.90;97.00;;;;;;4892969;29;20116;-88
2023/10/09 06:32:34;;;;;;;12.90;7.45;;;15.90;97.00;;;;;;4897601;29;20049;-89
2023/10/09 06:35:30;;;;;;;10.45;6.32;;;15.90;97.00;;;;;;4880920;29;20048;-89
2023/10/09 06:38:21;;;;;;;10.30;6.93;;;15.90;97.00;;;;;;4869351;29;20150;-90
2023/10/09 06:43:36;;;;;;;9.75;6.38;;;15.90;97.00;;;;;;4869515;29;20044;-89
2023/10/09 06:48:56;;;;;;;9.57;6.03;;;16.10;97.00;;;;;;4880989;29;20511;-89
2023/10/09 06:53:58;;;;;;;10.27;6.03;;;16.10;96.90;;;;;;4888375;29;20079;-89
2023/10/09 06:58:58;;;;;;;9.45;4.63;;;16.10;96.90;;;;;;4880773;29;20418;-90
2023/10/09 07:24:57;;;;;;;12.20;7.82;;;16.40;96.90;;;;;;4869475;29;20042;-89
2023/10/09 07:27:46;;;;;;;11.35;6.82;;;16.40;96.80;;;;;;4884366;29;20144;-89
2023/10/09 07:38:44;;;;;;;16.45;9.23;;;16.50;96.80;;;;;;4864359;29;20095;-88
2023/10/09 07:49:12;;;;;;;12.25;7.32;;;16.60;96.80;;;;;;4879904;29;20051;-88
2023/10/09 07:51:43;;;;;;;10.50;6.65;;;16.60;96.80;;;;;;4858147;29;20155;-88
2023/10/09 07:54:14;;;;;;;;;;;16.60;96.80;;;;;;4871909;29;20057;-89
2023/10/09 07:56:46;;;;;;;14.15;6.22;;;16.60;96.80;;;;;;4878043;29;19924;-87
2023/10/09 07:59:17;;;;;;;12.65;6.97;;;16.60;96.80;;;;;;4889162;29;20075;-87
2023/10/09 08:01:54;;;;;;;;;;;16.70;96.80;;;;;;4881284;29;20053;-87
2023/10/09 08:04:37;;;;;;;9.02;5.40;;;16.70;96.80;;;;;;4873365;29;19927;-87
2023/10/09 08:07:07;;;;;;;11.60;5.93;;;16.70;96.70;;;;;;4879086;29;20059;-86
2023/10/09 08:18:09;;;;;;;11.05;6.20;;;16.90;96.70;;;;;;4878897;29;20057;-88
2023/10/09 08:23:33;;;;;;;14.95;8.00;;;17.10;96.60;;;;;;4857717;29;20052;-89
2023/10/09 08:26:13;;;;;;;12.40;8.43;;;17.10;96.50;;;;;;4882869;29;20147;-89
2023/10/09 08:28:44;;;;;;;18.08;9.30;;;17.20;96.50;;;;;;4883104;29;20141;-87
2023/10/09 08:31:34;;;;;;;14.32;9.10;;;17.20;96.50;;;;;;4874135;29;20063;-86
2023/10/09 08:34:03;;;;;;;17.17;9.98;;;17.20;96.40;;;;;;4862845;29;20049;-86
2023/10/09 08:36:36;;;;;;;19.92;11.43;;;17.30;96.50;;;;;;4877908;29;20049;-88
2023/10/09 08:42:02;;;;;;;16.98;11.23;;;17.30;96.50;;;;;;4860509;29;20052;-87
2023/10/09 08:44:33;;;;;;;17.80;11.10;;;17.40;96.50;;;;;;4882104;29;20045;-86
2023/10/09 08:47:02;;;;;;;16.75;10.05;;;17.40;96.50;;;;;;4875065;29;20112;-87
2023/10/09 08:49:33;;;;;;;17.95;11.20;;;17.50;96.50;;;;;;4883131;29;20041;-86
2023/10/09 08:52:03;;;;;;;18.23;11.35;;;17.60;96.40;;;;;;4869234;29;20053;-87
2023/10/09 08:54:33;;;;;;;19.45;11.23;;;17.60;96.40;;;;;;4867793;29;20073;-85
2023/10/09 08:57:01;;;;;;;18.63;12.07;;;17.60;96.30;;;;;;4888694;29;20060;-86
2023/10/09 08:59:28;;;;;;;18.35;11.45;;;17.70;96.30;;;;;;4882476;29;20053;-86
2023/10/09 09:01:59;;;;;;;19.45;11.45;;;17.70;96.30;;;;;;4863698;29;20060;-87
2023/10/09 09:04:38;;;;;;;18.48;11.32;;;17.80;96.30;;;;;;4881879;29;20049;-87
2023/10/09 09:07:23;;;;;;;21.30;10.98;;;17.90;96.20;;;;;;4887974;29;20045;-87
2023/10/09 09:09:57;;;;;;;22.65;13.30;;;17.90;96.20;;;;;;4847189;29;20048;-87
2023/10/09 09:12:24;;;;;;;18.88;10.23;;;18.00;96.10;;;;;;4877827;29;20388;-87
2023/10/09 09:14:52;;;;;;;18.45;11.52;;;18.00;96.10;;;;;;4862437;29;20085;-87
2023/10/09 09:17:33;;;;;;;17.52;11.02;;;18.10;96.10;;;;;;4847777;29;20048;-93
2023/10/09 09:20:34;;;;;;;21.73;12.13;;;18.10;96.00;;;;;;4878839;29;20049;-90
2023/10/09 09:23:13;;;;;;;20.35;11.32;;;18.20;96.00;;;;;;4877491;29;20045;-89
2023/10/09 09:25:47;;;;;;;14.07;8.65;;;18.20;96.00;;;;;;4865144;29;20053;-89
2023/10/09 09:28:21;;;;;;;19.20;11.23;;;18.30;95.90;;;;;;4879603;29;20055;-90
2023/10/09 09:30:51;;;;;;;18.92;10.18;;;18.30;95.90;;;;;;4883107;29;20060;-90
2023/10/09 09:33:26;;;;;;;17.20;9.77;;;18.30;95.90;;;;;;4878782;29;20052;-89
2023/10/09 09:36:06;;;;;;;14.88;9.73;;;18.40;95.90;;;;;;4865934;29;20586;-90
2023/10/09 09:38:49;;;;;;;14.07;8.88;;;18.50;95.80;;;;;;4878494;29;20152;-89
2023/10/09 09:41:27;;;;;;;14.75;8.27;;;18.50;95.80;;;;;;4862735;29;20491;-92
2023/10/09 09:44:00;;;;;;;10.82;6.20;;;18.60;95.70;;;;;;4876489;29;20053;-92
2023/10/09 09:46:38;;;;;;;12.85;7.88;;;18.70;95.60;;;;;;4891513;29;20491;-86
2023/10/09 09:49:16;;;;;;;14.00;7.30;;;18.80;95.50;;;;;;4867009;29;20117;-91
2023/10/09 09:51:46;;;;;;;10.27;7.40;;;18.90;95.40;;;;;;4868004;29;20049;-91
2023/10/09 09:54:56;;;;;;;15.05;7.88;;;19.00;95.40;;;;;;4883798;29;20175;-92
2023/10/09 10:01:56;;;;;;;14.38;7.63;;;19.10;95.20;;;;;;4846481;29;20045;-95
2023/10/09 10:04:39;;;;;;;13.77;7.18;;;19.20;95.10;;;;;;4835419;29;20051;-95
2023/10/09 10:07:22;;;;;;;14.40;6.22;;;19.20;95.00;;;;;;4838757;29;20046;-87
2023/10/09 10:09:54;;;;;;;11.70;6.60;;;19.30;95.00;;;;;;4846896;29;20052;-91
2023/10/09 10:13:03;;;;;;;11.65;6.25;;;19.40;95.00;;;;;;4876652;29;20072;-96
2023/10/09 10:15:58;;;;;;;8.75;6.30;;;19.50;94.80;;;;;;4899232;29;20067;-90
2023/10/09 10:18:32;;;;;;;11.25;5.95;;;19.50;94.80;;;;;;4881663;29;20049;-91
2023/10/09 10:21:38;;;;;;;10.65;5.57;;;19.60;94.70;;;;;;4877406;29;20491;-90
2023/10/09 10:24:30;;;;;;;8.60;5.25;;;19.70;94.70;;;;;;4892460;29;20554;-93
2023/10/09 10:27:26;;;;;;;10.25;5.85;;;19.70;94.50;;;;;;4878032;29;20053;-94
2023/10/09 10:30:45;;;;;;;11.38;6.03;;;19.80;94.40;;;;;;4870117;29;21142;-93
2023/10/09 10:33:15;;;;;;;11.20;6.05;;;19.80;94.30;;;;;;4898642;29;20052;-90
2023/10/09 10:38:34;;;;;;;10.25;5.05;;;19.80;94.20;;;;;;4880770;29;20113;-90
2023/10/09 10:41:12;;;;;;;8.93;5.03;;;19.90;94.00;;;;;;4876825;29;20140;-90
2023/10/09 10:48:59;;;;;;;7.18;3.33;;;20.00;94.00;;;;;;4884262;29;20057;-89
2023/10/09 10:51:39;;;;;;;9.40;4.15;;;20.00;93.90;;;;;;4899571;29;20080;-90
2023/10/09 10:54:45;;;;;;;7.82;4.25;;;20.10;93.80;;;;;;4899143;29;20058;-89
2023/10/09 10:57:29;;;;;;;9.05;5.13;;;20.20;93.60;;;;;;4891245;29;20147;-89
2023/10/09 11:00:25;;;;;;;8.07;4.25;;;20.20;93.30;;;;;;4884955;29;20052;-89
2023/10/09 11:03:16;;;;;;;11.20;4.78;;;20.30;93.40;;;;;;4898766;29;20091;-88
2023/10/09 11:05:55;;;;;;;8.75;3.92;;;20.30;93.20;;;;;;4891351;29;20494;-88
2023/10/09 11:08:32;;;;;;;11.43;5.63;;;20.40;93.10;;;;;;4881428;29;20076;-88
2023/10/09 11:11:16;;;;;;;11.35;5.18;;;20.50;92.70;;;;;;4889333;29;20068;-87
2023/10/09 11:13:58;;;;;;;8.40;4.70;;;20.50;92.60;;;;;;4886093;29;20059;-88
2023/10/09 11:16:42;;;;;;;9.27;4.45;;;20.50;92.70;;;;;;4872529;29;20057;-87
2023/10/09 11:21:59;;;;;;;9.95;5.07;;;20.50;92.40;;;;;;4868628;29;20057;-88
2023/10/09 11:24:33;;;;;;;8.05;3.92;;;20.50;92.30;;;;;;4879441;29;20423;-88
2023/10/09 11:27:06;;;;;;;8.63;4.28;;;20.60;92.40;;;;;;4889111;29;20067;-87
2023/10/09 11:32:25;;;;;;;8.50;3.97;;;20.70;92.30;;;;;;4874226;29;20073;-86
2023/10/09 11:35:27;;;;;;;7.07;3.78;;;20.80;92.20;;;;;;4889916;29;20503;-88
2023/10/09 11:37:57;;;;;;;7.10;3.55;;;20.90;92.00;;;;;;4876558;29;20101;-87
2023/10/09 11:43:51;;;;;;;8.65;3.30;;;21.00;91.80;;;;;;4882871;29;20227;-88
2023/10/09 11:46:11;;;;;;;5.65;3.30;;;21.10;91.80;;;;;;4888731;29;20044;-88
2023/10/09 11:49:13;;;;;;;4.82;2.67;;;21.20;91.70;;;;;;4879314;29;20045;-88
2023/10/09 11:51:37;;;;;;;5.45;3.58;;;21.30;91.60;;;;;;4878936;29;20056;-87
2023/10/09 11:54:08;;;;;;;9.20;3.72;;;21.30;91.40;;;;;;4872216;29;20084;-87
2023/10/09 11:56:35;;;;;;;7.40;3.92;;;21.40;91.20;;;;;;4863203;29;20112;-87
2023/10/09 11:59:05;;;;;;;8.23;3.90;;;21.40;91.20;;;;;;4870996;29;20128;-88
2023/10/09 12:01:52;;;;;;;8.30;3.83;;;21.30;90.90;;;;;;4869249;29;20055;-87
2023/10/09 12:04:30;;;;;;;8.65;3.55;;;21.40;90.90;;;;;;4878635;29;20045;-87
2023/10/09 12:07:10;;;;;;;6.47;3.25;;;21.40;90.90;;;;;;4863688;29;20484;-88
2023/10/09 12:09:39;;;;;;;9.02;4.18;;;21.40;90.70;;;;;;4881233;29;20049;-86
2023/10/09 12:12:09;;;;;;;7.75;3.25;;;21.50;90.30;;;;;;4882374;29;20045;-87
2023/10/09 12:14:44;;;;;;;6.72;3.60;;;21.50;90.30;;;;;;4878584;29;20057;-88
2023/10/09 12:17:11;;;;;;;6.20;3.30;;;21.50;90.10;;;;;;4879277;29;20052;-88
2023/10/09 12:19:38;;;;;;;5.63;2.83;;;21.50;90.20;;;;;;4886656;29;20057;-87
2023/10/09 12:22:15;;;;;;;6.85;3.22;;;21.50;90.20;;;;;;4881734;29;20049;-87
2023/10/09 12:24:43;;;;;;;8.63;3.45;;;21.50;90.30;;;;;;4876718;29;20484;-87
2023/10/09 12:27:11;;;;;;;5.47;3.30;;;21.50;90.30;;;;;;4878359;29;20071;-88
2023/10/09 12:29:44;;;;;;;8.27;3.03;;;21.50;90.10;;;;;;4878309;29;20049;-88
2023/10/09 12:32:20;;;;;;;5.10;2.63;;;21.50;90.10;;;;;;4893334;29;20068;-87
2023/10/09 12:34:50;;;;;;;6.43;2.87;;;21.50;90.10;;;;;;4863763;29;20080;-90
2023/10/09 12:37:20;;;;;;;7.60;3.00;;;21.50;89.90;;;;;;4863221;29;20305;-89
2023/10/09 12:39:48;;;;;;;9.75;3.58;;;21.50;90.00;;;;;;4879381;29;20113;-94
2023/10/09 12:42:16;;;;;;;6.18;2.58;;;21.50;90.00;;;;;;4863761;29;20053;-91
2023/10/09 12:44:44;;;;;;;4.55;2.40;;;21.50;90.00;;;;;;4879101;29;20060;-90
2023/10/09 12:47:12;;;;;;;5.95;2.45;;;21.40;90.10;;;;;;4878905;29;20080;-90
2023/10/09 12:49:42;;;;;;;5.15;2.28;;;21.40;90.10;;;;;;4851386;29;20052;-90
2023/10/09 12:52:15;;;;;;;5.50;2.20;;;21.30;90.30;;;;;;4878703;29;20045;-89
2023/10/09 12:54:46;;;;;;;6.82;2.30;;;21.20;90.20;;;;;;4870554;29;20159;-89
2023/10/09 12:57:16;;;;;;;6.43;2.45;;;21.20;90.30;;;;;;4875687;29;20132;-89
2023/10/09 12:59:45;;;;;;;6.07;2.35;;;21.20;90.20;;;;;;4875807;29;20052;-88
2023/10/09 13:02:31;;;;;;;5.10;2.10;;;21.10;90.30;;;;;;4864138;29;20057;-88
2023/10/09 13:05:03;;;;;;;4.50;1.70;;;21.10;90.30;;;;;;4882747;29;20053;-89
2023/10/09 13:07:48;;;;;;;4.80;2.25;;;21.10;90.30;;;;;;4870802;29;20093;-93
2023/10/09 13:10:16;;;;;;;5.70;1.98;;;21.10;90.20;;;;;;4880260;29;20085;-90
2023/10/09 13:12:43;;;;;;;4.63;2.10;;;21.00;90.30;;;;;;4881190;29;20040;-94
2023/10/09 13:15:11;;;;;;;6.07;2.08;;;21.10;90.30;;;;;;4887205;29;20052;-92
2023/10/09 13:17:41;;;;;;;3.75;1.70;;;21.10;90.30;;;;;;4889013;29;20109;-90
2023/10/09 13:20:15;;;;;;;5.63;2.75;;;21.00;90.30;;;;;;4878970;29;20069;-91
2023/10/09 13:22:46;;;;;;;7.47;2.80;;;21.00;90.20;;;;;;4870895;29;20073;-88
2023/10/09 13:25:16;;;;;;;5.80;2.45;;;20.90;90.20;;;;;;4841808;29;20144;-90
2023/10/09 13:28:10;;;;;;;8.05;3.33;;;20.80;90.20;;;;;;4885266;29;20041;-94
2023/10/09 13:30:39;;;;;;;4.72;2.28;;;20.80;90.30;;;;;;4882681;29;20049;-95
2023/10/09 13:33:07;;;;;;;5.05;2.38;;;20.80;90.40;;;;;;4882961;29;20503;-93
2023/10/09 13:35:48;;;;;;;5.78;2.60;;;20.70;90.40;;;;;;4882680;29;20057;-87
2023/10/09 13:38:18;;;;;;;8.73;2.72;;;20.70;90.40;;;;;;4861119;29;20080;-94
2023/10/09 13:40:45;;;;;;;3.42;1.50;;;20.70;90.50;;;;;;4870904;29;20072;-90
2023/10/09 13:43:16;;;;;;;5.45;2.35;;;20.70;90.50;;;;;;4900517;29;20140;-90
2023/10/09 13:46:04;;;;;;;4.05;1.77;;;20.70;90.60;;;;;;4889406;29;20488;-92
2023/10/09 13:48:37;;;;;;;4.53;1.35;;;20.70;90.70;;;;;;4863015;29;20053;-89
2023/10/09 13:51:07;;;;;;;5.68;2.17;;;20.60;90.80;;;;;;4877683;29;20044;-90
2023/10/09 13:53:44;;;;;;;4.25;1.40;;;20.60;90.80;;;;;;4883889;29;20495;-95
2023/10/09 13:56:18;;;;;;;4.40;1.67;;;20.60;90.80;;;;;;4889806;29;20414;-93
2023/10/09 13:58:55;;;;;;;4.32;1.52;;;20.60;90.90;;;;;;4880042;29;20129;-91
2023/10/09 14:01:32;;;;;;;4.03;1.75;;;20.50;90.90;;;;;;4885529;29;20100;-89
2023/10/09 14:04:00;;;;;;;5.40;2.15;;;20.50;90.90;;;;;;4886032;29;20056;-88
2023/10/09 14:06:44;;;;;;;6.10;2.03;;;20.50;90.90;;;;;;4880852;29;20595;-93
2023/10/09 14:09:31;;;;;;;7.15;2.70;;;20.50;90.90;;;;;;4882049;29;20049;-92
2023/10/09 14:12:11;;;;;;;6.32;2.50;;;20.50;90.90;;;;;;4884424;29;20056;-90
2023/10/09 14:14:49;;;;;;;6.05;2.50;;;20.50;90.90;;;;;;4893753;29;20459;-87
2023/10/09 14:17:25;;;;;;;5.57;2.60;;;20.50;91.00;;;;;;4881854;29;20113;-90
2023/10/09 14:19:54;;;;;;;7.00;2.30;;;20.50;90.90;;;;;;4882340;29;20530;-88
2023/10/09 14:22:32;;;;;;;5.30;2.35;;;20.50;90.90;;;;;;4877627;29;20128;-89
2023/10/09 14:24:59;;;;;;;6.50;2.42;;;20.50;91.00;;;;;;4865700;29;20045;-88
2023/10/09 14:27:29;;;;;;;7.00;2.30;;;20.50;90.90;;;;;;4866227;29;20068;-91
2023/10/09 14:30:00;;;;;;;5.97;2.08;;;20.60;91.00;;;;;;4870472;29;20050;-89
2023/10/09 14:32:37;;;;;;;6.43;2.50;;;20.60;91.00;;;;;;4891579;29;20080;-88
2023/10/09 14:35:12;;;;;;;5.65;2.40;;;20.60;91.00;;;;;;4880995;29;20075;-89
2023/10/09 14:37:41;;;;;;;6.70;1.85;;;20.60;91.00;;;;;;4880799;29;20060;-87
2023/10/09 14:40:20;;;;;;;4.72;2.17;;;20.60;91.10;;;;;;4879708;29;20049;-88
2023/10/09 14:42:52;;;;;;;6.50;2.17;;;20.60;91.10;;;;;;4883762;29;20061;-89
2023/10/09 14:45:26;;;;;;;9.35;3.05;;;20.60;91.10;;;;;;4865508;29;20392;-90
2023/10/09 14:47:54;;;;;;;4.65;2.17;;;20.50;91.10;;;;;;4850115;29;20055;-87
2023/10/09 14:50:22;;;;;;;4.53;2.10;;;20.50;91.10;;;;;;4869467;29;20073;-88
2023/10/09 14:52:52;;;;;;;4.60;1.90;;;20.50;91.20;;;;;;4870559;29;20053;-87
2023/10/09 14:55:28;;;;;;;6.10;1.92;;;20.50;91.20;;;;;;4883547;29;20056;-89
2023/10/09 14:57:58;;;;;;;4.45;1.90;;;20.50;91.20;;;;;;4873621;29;20048;-89
2023/10/09 15:00:33;;;;;;;4.95;2.42;;;20.50;91.30;;;;;;4892578;29;20053;-89
2023/10/09 15:03:04;;;;;;;5.70;2.25;;;20.50;91.30;;;;;;4889935;29;20067;-88
2023/10/09 15:05:34;;;;;;;4.88;2.35;;;20.50;91.30;;;;;;4890516;29;20136;-87
2023/10/09 15:08:04;;;;;;;8.07;2.65;;;20.50;91.30;;;;;;4884029;29;20097;-90
2023/10/09 15:10:33;;;;;;;;;;;20.50;91.30;;;;;;4853901;29;20053;-89
2023/10/09 15:13:00;;;;;;;5.30;2.42;;;20.50;91.30;;;;;;4896741;29;19927;-89
2023/10/09 15:15:30;;;;;;;9.88;2.65;;;20.50;91.30;;;;;;4882023;29;20416;-89
2023/10/09 15:17:58;;;;;;;6.05;2.60;;;20.60;91.20;;;;;;4888334;29;20053;-90
2023/10/09 15:20:28;;;;;;;7.28;2.72;;;20.60;91.40;;;;;;4879691;29;20086;-89
2023/10/09 15:22:56;;;;;;;5.53;3.03;;;20.60;91.10;;;;;;4851545;29;20053;-89
2023/10/09 15:25:23;;;;;;;5.35;2.88;;;20.60;91.10;;;;;;4874226;29;20045;-88
2023/10/09 15:27:50;;;;;;;5.78;2.72;;;20.70;91.20;;;;;;4880589;29;20558;-89
2023/10/09 15:30:18;;;;;;;6.25;2.72;;;20.70;91.10;;;;;;4885673;29;20144;-89
2023/10/09 15:32:45;;;;;;;8.82;3.05;;;20.70;91.10;;;;;;4890783;29;20049;-89
2023/10/09 15:35:13;;;;;;;6.93;2.58;;;20.70;91.10;;;;;;4874789;29;20125;-89
2023/10/09 15:37:42;;;;;;;8.10;2.78;;;20.70;91.10;;;;;;4858631;29;20088;-89
2023/10/09 15:40:18;;;;;;;7.25;3.33;;;20.60;91.10;;;;;;4865081;29;20060;-89
2023/10/09 15:42:55;;;;;;;8.20;3.03;;;20.60;91.20;;;;;;4869928;29;20052;-90
2023/10/09 15:45:24;;;;;;;7.53;2.85;;;20.50;91.30;;;;;;4865767;29;20057;-87
2023/10/09 15:47:51;;;;;;;6.38;2.78;;;20.40;91.40;;;;;;4833870;29;20388;-89
2023/10/09 15:50:19;;;;;;;7.35;2.80;;;20.30;91.50;;;;;;4863952;29;20055;-88
2023/10/09 15:52:51;;;;;;;5.22;2.70;;;20.30;91.50;;;;;;4873140;29;20048;-89
2023/10/09 15:55:20;;;;;;;6.30;2.60;;;20.30;91.60;;;;;;4879029;29;20053;-88